createdAt,value
2019-01-21T00:01:00.392Z,98982.72
2019-01-21T00:03:30.162Z,98979.56
2019-01-21T00:05:59.767Z,98980.63
2019-01-21T00:08:29.460Z,98987.20
2019-01-21T00:10:59.049Z,98987.80
2019-01-21T00:13:28.659Z,98994.03
2019-01-21T00:15:58.443Z,98999.25
2019-01-21T00:18:28.081Z,98997.92
2019-01-21T00:20:57.682Z,99004.41
2019-01-21T00:23:27.478Z,98999.94
2019-01-21T00:25:57.112Z,98998.89
2019-01-21T00:28:26.738Z,98991.62
2019-01-21T00:30:56.402Z,98993.20
2019-01-21T00:33:26.046Z,98998.82
2019-01-21T00:35:55.669Z,99005.67
2019-01-21T00:38:25.384Z,99006.81
2019-01-21T00:40:55.182Z,99001.63
2019-01-21T00:43:24.805Z,98992.53
2019-01-21T00:45:54.507Z,98991.88
2019-01-21T00:48:24.195Z,99001.24
2019-01-21T00:50:53.813Z,98996.41
2019-01-21T00:53:23.497Z,99006.27
2019-01-21T00:55:53.103Z,99000.45
2019-01-21T00:58:22.752Z,99001.63
2019-01-21T01:00:52.530Z,99002.09
2019-01-21T01:03:22.266Z,99004.52
2019-01-21T01:05:52.003Z,99012.50
2019-01-21T01:08:21.666Z,99011.20
2019-01-21T01:10:51.318Z,99005.38
2019-01-21T01:13:20.965Z,99008.26
2019-01-21T01:15:50.746Z,99019.11
2019-01-21T01:18:20.420Z,99019.91
2019-01-21T01:20:50.107Z,99011.69
2019-01-21T01:23:19.792Z,99004.97
2019-01-21T01:25:49.428Z,99009.45
2019-01-21T01:28:19.046Z,99008.73
2019-01-21T01:30:48.711Z,99003.77
2019-01-21T01:33:18.346Z,99006.38
2019-01-21T01:35:48.080Z,99003.67
2019-01-21T01:38:17.769Z,99008.62
2019-01-21T01:40:47.377Z,99005.32
2019-01-21T01:43:16.978Z,98998.47
2019-01-21T01:45:46.645Z,99006.27
2019-01-21T01:48:16.306Z,99002.52
2019-01-21T01:50:45.967Z,99000.65
2019-01-21T01:53:15.744Z,99000.32
2019-01-21T01:55:45.648Z,99002.52
2019-01-21T01:58:15.275Z,99004.22
2019-01-21T02:00:45.141Z,99006.41
2019-01-21T02:03:14.731Z,99004.31
2019-01-21T02:05:44.371Z,99000.59
2019-01-21T02:08:14.435Z,99004.98
2019-01-21T02:10:44.023Z,98996.97
2019-01-21T02:13:13.788Z,98997.00
2019-01-21T02:15:43.444Z,98993.47
2019-01-21T02:18:13.039Z,98989.74
2019-01-21T02:20:44.406Z,98990.58
2019-01-21T02:23:17.252Z,98984.95
2019-01-21T02:26:01.013Z,98982.75
2019-01-21T02:29:09.449Z,98981.95
2019-01-21T02:32:27.718Z,98985.29
2019-01-21T02:35:20.551Z,98989.33
2019-01-21T02:38:10.873Z,98995.05
2019-01-21T02:41:17.145Z,98997.63
2019-01-21T02:44:18.365Z,98988.84
2019-01-21T02:47:21.580Z,98991.66
2019-01-21T02:50:41.951Z,98999.16
2019-01-21T02:54:01.327Z,99003.25
2019-01-21T02:57:09.138Z,98999.61
2019-01-21T03:00:00.740Z,98997.07
2019-01-21T03:03:19.762Z,99002.19
2019-01-21T03:06:14.847Z,98996.39
2019-01-21T03:09:19.382Z,98997.63
2019-01-21T03:12:38.505Z,98998.69
2019-01-21T03:15:35.620Z,99004.14
2019-01-21T03:18:55.283Z,99004.97
2019-01-21T03:21:53.974Z,99013.03
2019-01-21T03:25:25.303Z,99014.66
2019-01-21T03:28:40.053Z,99006.68
2019-01-21T03:31:46.088Z,99001.52
2019-01-21T03:34:52.620Z,99005.66
2019-01-21T03:37:49.852Z,99007.63
2019-01-21T03:40:57.603Z,99005.70
2019-01-21T03:44:03.986Z,99008.49
2019-01-21T03:47:21.327Z,99007.08
2019-01-21T03:50:28.796Z,99001.83
2019-01-21T03:53:39.393Z,99005.11
2019-01-21T03:56:14.972Z,99003.30
2019-01-21T03:59:05.890Z,99004.36
2019-01-21T04:02:04.751Z,99001.14
2019-01-21T04:05:19.215Z,99006.16
2019-01-21T04:08:41.319Z,99011.06
2019-01-21T04:11:27.477Z,99013.52
2019-01-21T04:14:26.298Z,99016.27
2019-01-21T04:17:22.964Z,99019.13
2019-01-21T04:20:22.402Z,99019.95
2019-01-21T04:23:29.399Z,99024.80
2019-01-21T04:26:30.895Z,99031.75
2019-01-21T04:29:08.237Z,99038.21
2019-01-21T04:32:13.548Z,99039.86
2019-01-21T04:35:13.883Z,99041.45
2019-01-21T04:38:39.076Z,99040.42
2019-01-21T04:41:17.918Z,99047.53
2019-01-21T04:44:33.166Z,99048.61
2019-01-21T04:47:57.439Z,99057.38
2019-01-21T04:51:12.009Z,99052.68
2019-01-21T04:54:13.896Z,99054.77
2019-01-21T04:57:12.121Z,99060.48
2019-01-21T05:00:08.695Z,99055.05
2019-01-21T05:03:34.385Z,99055.25
2019-01-21T05:06:51.201Z,99068.36
2019-01-21T05:10:10.465Z,99065.08
2019-01-21T05:12:56.257Z,99061.06
2019-01-21T05:16:14.585Z,99066.15
2019-01-21T05:19:26.884Z,99068.00
2019-01-21T05:22:49.305Z,99077.80
2019-01-21T05:25:39.087Z,99073.22
2019-01-21T05:28:47.384Z,99076.31
2019-01-21T05:31:46.962Z,99073.04
2019-01-21T05:34:38.019Z,99078.53
2019-01-21T05:37:48.561Z,99085.98
2019-01-21T05:41:05.051Z,99083.26
2019-01-21T05:44:07.621Z,99085.02
2019-01-21T05:47:22.730Z,99091.12
2019-01-21T05:50:40.184Z,99090.33
2019-01-21T05:53:44.363Z,99088.98
2019-01-21T05:56:51.934Z,99089.71
2019-01-21T06:00:09.477Z,99089.64
2019-01-21T06:03:13.799Z,99096.30
2019-01-21T06:06:36.361Z,99094.73
2019-01-21T06:09:37.790Z,99096.76
2019-01-21T06:12:44.620Z,99105.64
2019-01-21T06:15:55.399Z,99107.72
2019-01-21T06:18:38.487Z,99115.17
2019-01-21T06:21:47.723Z,99116.45
2019-01-21T06:24:36.247Z,99123.09
2019-01-21T06:27:32.609Z,99125.31
2019-01-21T06:30:37.226Z,99128.87
2019-01-21T06:33:52.221Z,99124.41
2019-01-21T06:36:53.125Z,99128.53
2019-01-21T06:40:21.290Z,99134.21
2019-01-21T06:43:05.543Z,99140.51
2019-01-21T06:46:29.948Z,99136.66
2019-01-21T06:49:30.974Z,99135.20
2019-01-21T06:52:31.205Z,99140.59
2019-01-21T06:55:33.982Z,99142.42
2019-01-21T06:58:35.853Z,99137.95
2019-01-21T07:01:46.006Z,99145.65
2019-01-21T07:04:48.468Z,99150.11
2019-01-21T07:08:06.898Z,99155.95
2019-01-21T07:11:01.665Z,99147.73
2019-01-21T07:13:55.968Z,99149.84
2019-01-21T07:16:56.610Z,99153.05
2019-01-21T07:19:57.929Z,99154.19
2019-01-21T07:23:14.507Z,99157.58
2019-01-21T07:25:55.181Z,99150.29
2019-01-21T07:28:57.008Z,99153.39
2019-01-21T07:32:08.985Z,99155.67
2019-01-21T07:35:26.286Z,99157.91
2019-01-21T07:38:21.345Z,99169.16
2019-01-21T07:41:13.744Z,99177.66
2019-01-21T07:44:21.340Z,99168.84
2019-01-21T07:47:29.979Z,99166.08
2019-01-21T07:50:58.070Z,99168.17
2019-01-21T07:54:05.599Z,99170.17
2019-01-21T07:57:06.268Z,99171.77
2019-01-21T08:00:18.529Z,99171.44
2019-01-21T08:03:20.373Z,99171.80
2019-01-21T08:06:42.551Z,99175.04
2019-01-21T08:09:54.163Z,99175.80
2019-01-21T08:12:53.373Z,99181.75
2019-01-21T08:15:53.520Z,99185.53
2019-01-21T08:18:51.769Z,99177.23
2019-01-21T08:22:05.724Z,99183.84
2019-01-21T08:25:23.472Z,99190.89
2019-01-21T08:28:18.588Z,99189.33
2019-01-21T08:31:32.322Z,99183.50
2019-01-21T08:34:54.663Z,99185.39
2019-01-21T08:38:06.301Z,99186.00
2019-01-21T08:41:40.581Z,99190.95
2019-01-21T08:44:53.947Z,99195.05
2019-01-21T08:47:45.998Z,99189.42
2019-01-21T08:50:39.891Z,99193.83
2019-01-21T08:53:34.047Z,99192.41
2019-01-21T08:56:32.307Z,99204.13
2019-01-21T08:59:33.806Z,99204.12
2019-01-21T09:02:33.944Z,99213.95
2019-01-21T09:05:29.615Z,99204.90
2019-01-21T09:08:37.747Z,99208.52
2019-01-21T09:11:55.508Z,99208.84
2019-01-21T09:14:53.539Z,99208.31
2019-01-21T09:18:10.258Z,99201.03
2019-01-21T09:21:38.263Z,99204.55
2019-01-21T09:24:35.010Z,99199.67
2019-01-21T09:27:20.607Z,99193.87
2019-01-21T09:30:49.143Z,99188.30
2019-01-21T09:33:46.991Z,99189.03
2019-01-21T09:36:46.993Z,99187.72
2019-01-21T09:39:49.212Z,99183.56
2019-01-21T09:42:26.834Z,99180.16
2019-01-21T09:45:26.055Z,99177.86
2019-01-21T09:47:53.856Z,99177.67
2019-01-21T09:50:23.708Z,99174.80
2019-01-21T09:52:54.009Z,99170.76
2019-01-21T09:55:26.269Z,99168.11
2019-01-21T09:58:07.846Z,99167.68
2019-01-21T10:00:37.705Z,99163.36
2019-01-21T10:03:08.803Z,99164.14
2019-01-21T10:05:40.038Z,99166.95
2019-01-21T10:08:45.975Z,99154.77
2019-01-21T10:11:52.317Z,99154.84
2019-01-21T10:14:59.650Z,99150.60
2019-01-21T10:18:03.656Z,99152.88
2019-01-21T10:21:09.649Z,99150.71
2019-01-21T10:24:43.811Z,99143.52
2019-01-21T10:27:38.627Z,99145.86
2019-01-21T10:30:57.952Z,99132.72
2019-01-21T10:34:07.062Z,99133.58
2019-01-21T10:37:18.628Z,99126.45
2019-01-21T10:40:39.713Z,99126.73
2019-01-21T10:43:56.030Z,99130.69
2019-01-21T10:47:12.410Z,99131.08
2019-01-21T10:50:09.859Z,99125.14
2019-01-21T10:52:58.658Z,99123.89
2019-01-21T10:55:55.108Z,99132.89
2019-01-21T10:58:37.691Z,99118.74
2019-01-21T11:01:44.800Z,99117.26
2019-01-21T11:04:36.808Z,99115.84
2019-01-21T11:07:41.637Z,99120.93
2019-01-21T11:10:53.481Z,99116.74
2019-01-21T11:13:59.813Z,99110.73
2019-01-21T11:17:10.466Z,99112.91
2019-01-21T11:20:23.461Z,99101.34
2019-01-21T11:23:08.669Z,99096.44
2019-01-21T11:26:03.830Z,99101.31
2019-01-21T11:28:48.984Z,99097.73
2019-01-21T11:31:50.919Z,99107.08
2019-01-21T11:34:53.174Z,99097.53
2019-01-21T11:37:59.778Z,99089.61
2019-01-21T11:40:54.601Z,99085.75
2019-01-21T11:44:13.984Z,99080.77
2019-01-21T11:47:17.160Z,99074.94
2019-01-21T11:50:34.908Z,99072.59
2019-01-21T11:53:17.375Z,99075.77
2019-01-21T11:56:25.515Z,99070.66
2019-01-21T11:59:25.189Z,99071.50
2019-01-21T12:02:45.913Z,99069.36
2019-01-21T12:05:54.062Z,99071.59
2019-01-21T12:08:51.312Z,99070.21
2019-01-21T12:11:32.780Z,99069.56
2019-01-21T12:14:45.418Z,99068.67
2019-01-21T12:18:07.889Z,99062.34
2019-01-21T12:21:16.746Z,99059.03
2019-01-21T12:24:34.989Z,99060.48
2019-01-21T12:27:31.978Z,99058.27
2019-01-21T12:30:43.890Z,99056.19
2019-01-21T12:34:09.285Z,99061.52
2019-01-21T12:36:54.310Z,99061.80
2019-01-21T12:40:03.016Z,99056.83
2019-01-21T12:42:44.550Z,99064.95
2019-01-21T12:45:54.402Z,99068.03
2019-01-21T12:48:59.393Z,99070.14
2019-01-21T12:51:59.652Z,99063.06
2019-01-21T12:55:11.760Z,99069.38
2019-01-21T12:58:10.387Z,99069.10
2019-01-21T13:01:13.967Z,99070.61
2019-01-21T13:04:20.200Z,99074.86
2019-01-21T13:07:25.598Z,99066.69
2019-01-21T13:10:32.889Z,99070.14
2019-01-21T13:13:38.303Z,99073.94
2019-01-21T13:16:37.063Z,99077.20
2019-01-21T13:19:38.565Z,99074.33
2019-01-21T13:22:28.277Z,99079.03
2019-01-21T13:25:38.715Z,99087.21
2019-01-21T13:28:56.995Z,99080.59
2019-01-21T13:32:25.499Z,99074.20
2019-01-21T13:35:49.973Z,99071.34
2019-01-21T13:39:04.582Z,99073.66
2019-01-21T13:42:03.215Z,99075.14
2019-01-21T13:44:49.741Z,99076.23
2019-01-21T13:47:58.633Z,99076.22
2019-01-21T13:51:06.761Z,99078.48
2019-01-21T13:54:22.694Z,99079.28
2019-01-21T13:57:24.836Z,99081.63
2019-01-21T14:00:28.068Z,99082.80
2019-01-21T14:03:22.567Z,99082.74
2019-01-21T14:06:14.106Z,99083.77
2019-01-21T14:09:08.464Z,99078.34
2019-01-21T14:12:20.101Z,99076.27
2019-01-21T14:15:17.731Z,99075.78
2019-01-21T14:18:16.369Z,99072.61
2019-01-21T14:21:25.013Z,99075.27
2019-01-21T14:24:15.001Z,99076.20
2019-01-21T14:27:08.719Z,99077.66
2019-01-21T14:30:06.610Z,99081.27
2019-01-21T14:33:01.338Z,99081.59
2019-01-21T14:35:53.090Z,99077.59
2019-01-21T14:38:54.010Z,99083.91
2019-01-21T14:41:57.319Z,99077.80
2019-01-21T14:45:09.046Z,99088.00
2019-01-21T14:48:40.361Z,99089.52
2019-01-21T14:51:39.239Z,99089.17
2019-01-21T14:54:58.161Z,99098.44
2019-01-21T14:58:11.464Z,99101.33
2019-01-21T15:01:08.463Z,99104.99
2019-01-21T15:04:06.185Z,99104.40
2019-01-21T15:07:18.458Z,99114.33
2019-01-21T15:10:14.271Z,99115.54
2019-01-21T15:13:18.335Z,99112.84
2019-01-21T15:16:28.382Z,99118.49
2019-01-21T15:19:11.190Z,99121.51
2019-01-21T15:22:22.506Z,99119.34
2019-01-21T15:25:33.675Z,99126.40
2019-01-21T15:29:08.155Z,99122.85
2019-01-21T15:32:09.783Z,99127.06
2019-01-21T15:35:10.875Z,99130.77
2019-01-21T15:38:23.993Z,99133.00
2019-01-21T15:41:19.499Z,99136.81
2019-01-21T15:44:29.528Z,99138.88
2019-01-21T15:47:37.396Z,99140.44
2019-01-21T15:50:20.639Z,99142.66
2019-01-21T15:53:09.053Z,99150.69
2019-01-21T15:56:11.012Z,99157.24
2019-01-21T15:59:07.888Z,99165.78
2019-01-21T16:01:55.921Z,99173.14
2019-01-21T16:05:09.038Z,99177.47
2019-01-21T16:08:22.443Z,99194.08
2019-01-21T16:11:05.433Z,99194.64
2019-01-21T16:13:59.426Z,99208.38
2019-01-21T16:17:06.730Z,99215.89
2019-01-21T16:19:43.053Z,99219.95
2019-01-21T16:23:09.976Z,99218.53
2019-01-21T16:25:58.977Z,99219.55
2019-01-21T16:29:07.817Z,99228.59
2019-01-21T16:32:12.738Z,99231.41
2019-01-21T16:35:25.697Z,99226.25
2019-01-21T16:38:17.434Z,99235.72
2019-01-21T16:41:30.172Z,99245.04
2019-01-21T16:43:59.790Z,99241.09
2019-01-21T16:46:29.401Z,99242.94
2019-01-21T16:48:59.109Z,99245.51
2019-01-21T16:51:28.819Z,99250.17
2019-01-21T16:53:58.445Z,99256.05
2019-01-21T16:56:28.148Z,99250.94
2019-01-21T16:58:57.770Z,99256.63
2019-01-21T17:01:30.575Z,99263.02
2019-01-21T17:04:00.333Z,99264.89
2019-01-21T17:06:30.069Z,99272.47
2019-01-21T17:09:00.366Z,99270.95
2019-01-21T17:11:30.811Z,99276.30
2019-01-21T17:14:00.381Z,99276.09
2019-01-21T17:16:30.013Z,99283.08
2019-01-21T17:18:59.824Z,99279.88
2019-01-21T17:21:29.467Z,99283.16
2019-01-21T17:23:59.142Z,99280.12
2019-01-21T17:26:28.922Z,99276.63
2019-01-21T17:28:58.565Z,99284.21
2019-01-21T17:31:28.217Z,99277.88
2019-01-21T17:33:57.933Z,99285.34
2019-01-21T17:36:27.591Z,99280.76
2019-01-21T17:38:57.260Z,99280.20
2019-01-21T17:41:27.072Z,99277.03
2019-01-21T17:43:56.746Z,99278.70
2019-01-21T17:46:26.383Z,99282.38
2019-01-21T17:48:56.096Z,99284.27
2019-01-21T17:51:25.734Z,99289.16
2019-01-21T17:53:55.351Z,99293.70
2019-01-21T17:56:25.158Z,99298.95
2019-01-21T17:58:55.459Z,99292.37
2019-01-21T18:01:25.174Z,99294.68
2019-01-21T18:03:54.970Z,99291.70
2019-01-21T18:06:24.677Z,99297.27
2019-01-21T18:08:54.302Z,99296.03
2019-01-21T18:11:23.997Z,99299.15
2019-01-21T18:13:53.736Z,99297.45
2019-01-21T18:16:23.356Z,99300.36
2019-01-21T18:18:53.048Z,99305.30
2019-01-21T18:21:22.754Z,99304.03
2019-01-21T18:23:52.381Z,99308.11
2019-01-21T18:26:22.185Z,99307.23
2019-01-21T18:28:51.787Z,99307.51
2019-01-21T18:31:21.436Z,99300.80
2019-01-21T18:33:51.169Z,99303.27
2019-01-21T18:36:20.786Z,99308.91
2019-01-21T18:38:50.423Z,99318.15
2019-01-21T18:41:20.170Z,99314.05
2019-01-21T18:43:49.870Z,99311.59
2019-01-21T18:46:19.508Z,99310.35
2019-01-21T18:48:49.283Z,99316.50
2019-01-21T18:51:18.952Z,99320.70
2019-01-21T18:53:48.701Z,99322.32
2019-01-21T18:56:18.432Z,99322.96
2019-01-21T18:58:48.088Z,99324.89
2019-01-21T19:01:17.736Z,99325.81
2019-01-21T19:03:47.458Z,99329.92
2019-01-21T19:06:17.132Z,99330.80
2019-01-21T19:08:46.700Z,99328.45
2019-01-21T19:11:16.365Z,99332.53
2019-01-21T19:13:46.138Z,99335.53
2019-01-21T19:16:15.774Z,99340.89
2019-01-21T19:18:45.424Z,99345.55
2019-01-21T19:21:15.148Z,99349.61
2019-01-21T19:23:44.806Z,99350.77
2019-01-21T19:26:14.467Z,99361.98
2019-01-21T19:28:44.147Z,99355.61
2019-01-21T19:31:13.814Z,99367.81
2019-01-21T19:33:43.453Z,99381.30
2019-01-21T19:36:13.086Z,99378.98
2019-01-21T19:38:42.774Z,99373.12
2019-01-21T19:41:12.538Z,99380.90
2019-01-21T19:43:42.226Z,99390.38
2019-01-21T19:46:15.022Z,99392.00
2019-01-21T19:48:44.678Z,99392.11
2019-01-21T19:51:14.458Z,99390.05
2019-01-21T19:53:44.082Z,99398.62
2019-01-21T19:56:13.763Z,99400.59
2019-01-21T19:58:43.408Z,99398.03
2019-01-21T20:01:13.210Z,99398.13
2019-01-21T20:03:42.854Z,99402.78
2019-01-21T20:06:12.618Z,99400.84
2019-01-21T20:08:42.293Z,99399.08
2019-01-21T20:11:12.119Z,99397.97
2019-01-21T20:13:41.745Z,99398.13
2019-01-21T20:16:11.553Z,99398.42
2019-01-21T20:18:41.195Z,99394.94
2019-01-21T20:21:10.956Z,99395.62
2019-01-21T20:23:40.600Z,99395.41
2019-01-21T20:26:10.401Z,99394.31
2019-01-21T20:28:40.088Z,99396.41
2019-01-21T20:31:09.799Z,99400.17
2019-01-21T20:33:39.410Z,99398.73
2019-01-21T20:36:09.115Z,99405.11
2019-01-21T20:38:38.729Z,99402.47
2019-01-21T20:41:08.408Z,99411.38
2019-01-21T20:43:38.087Z,99407.26
2019-01-21T20:46:07.817Z,99413.14
2019-01-21T20:48:37.514Z,99416.81
2019-01-21T20:51:07.186Z,99417.33
2019-01-21T20:53:36.877Z,99419.57
2019-01-21T20:56:06.489Z,99429.25
2019-01-21T20:58:36.302Z,99426.08
2019-01-21T21:01:06.044Z,99424.53
2019-01-21T21:03:35.967Z,99428.16
2019-01-21T21:06:05.689Z,99430.35
2019-01-21T21:08:35.309Z,99428.02
2019-01-21T21:11:04.844Z,99427.55
2019-01-21T21:13:34.458Z,99430.36
2019-01-21T21:16:03.997Z,99425.98
2019-01-21T21:18:33.565Z,99434.78
2019-01-21T21:21:03.111Z,99428.42
2019-01-21T21:23:32.699Z,99432.76
2019-01-21T21:26:02.267Z,99434.67
2019-01-21T21:28:32.149Z,99436.37
2019-01-21T21:31:01.695Z,99437.81
2019-01-21T21:33:31.328Z,99441.33
2019-01-21T21:36:00.863Z,99447.34
2019-01-21T21:38:30.545Z,99441.91
2019-01-21T21:41:00.069Z,99444.56
2019-01-21T21:43:29.647Z,99444.45
2019-01-21T21:45:59.268Z,99446.15
2019-01-21T21:48:31.862Z,99437.95
2019-01-21T21:51:00.128Z,99447.58
2019-01-21T21:53:29.661Z,99453.00
2019-01-21T21:55:59.223Z,99453.75
2019-01-21T21:58:28.786Z,99450.73
2019-01-21T22:00:58.485Z,99449.63
2019-01-21T22:03:27.997Z,99451.47
2019-01-21T22:05:57.554Z,99447.95
2019-01-21T22:08:27.072Z,99453.13
2019-01-21T22:10:56.628Z,99451.11
2019-01-21T22:13:26.228Z,99451.70
2019-01-21T22:15:55.752Z,99450.25
2019-01-21T22:18:25.329Z,99447.00
2019-01-21T22:20:54.866Z,99449.39
2019-01-21T22:23:25.332Z,99444.33
2019-01-21T22:25:54.899Z,99446.74
2019-01-21T22:28:24.646Z,99445.06
2019-01-21T22:30:54.242Z,99454.92
2019-01-21T22:33:23.901Z,99450.48
2019-01-21T22:35:53.682Z,99453.13
2019-01-21T22:38:23.319Z,99449.77
2019-01-21T22:40:53.000Z,99446.73
2019-01-21T22:43:22.716Z,99450.11
2019-01-21T22:45:52.390Z,99446.73
2019-01-21T22:48:21.984Z,99456.03
2019-01-21T22:50:51.699Z,99453.81
2019-01-21T22:53:22.227Z,99449.12
2019-01-21T22:55:51.939Z,99445.06
2019-01-21T22:58:21.647Z,99453.72
2019-01-21T23:01:39.071Z,99447.58
2019-01-21T23:04:08.685Z,99459.14
2019-01-21T23:06:38.276Z,99449.00
2019-01-21T23:09:09.820Z,99448.92
2019-01-21T23:11:44.515Z,99448.08
2019-01-21T23:14:20.191Z,99442.94
2019-01-21T23:16:49.853Z,99443.23
2019-01-21T23:19:19.483Z,99442.65
2019-01-21T23:21:49.205Z,99443.38
2019-01-21T23:24:19.056Z,99444.92
2019-01-21T23:26:48.678Z,99450.24
2019-01-21T23:29:18.357Z,99445.28
2019-01-21T23:31:47.996Z,99440.09
2019-01-21T23:34:17.634Z,99439.38
2019-01-21T23:36:47.484Z,99440.36
2019-01-21T23:39:17.079Z,99433.22
2019-01-21T23:41:46.759Z,99432.20
2019-01-21T23:44:16.624Z,99432.74
2019-01-21T23:46:46.346Z,99432.75
2019-01-21T23:49:16.346Z,99435.66
2019-01-21T23:51:46.184Z,99435.04
2019-01-21T23:54:16.046Z,99433.00
2019-01-21T23:56:45.773Z,99434.58
2019-01-21T23:59:15.470Z,99439.88
